createdAt,value
2018-05-03T00:01:07.845Z,11.59
2018-05-03T00:02:07.735Z,11.51
2018-05-03T00:04:00.635Z,11.52
2018-05-03T00:05:00.599Z,11.50
2018-05-03T00:06:53.940Z,11.45
2018-05-03T00:07:53.883Z,11.36
2018-05-03T00:09:46.701Z,11.29
2018-05-03T00:10:46.665Z,11.29
2018-05-03T00:12:39.657Z,11.40
2018-05-03T00:13:39.703Z,11.35
2018-05-03T00:15:32.471Z,11.33
2018-05-03T00:16:32.403Z,11.23
2018-05-03T00:18:25.460Z,11.27
2018-05-03T00:19:25.299Z,11.26
2018-05-03T00:21:18.295Z,11.25
2018-05-03T00:22:18.234Z,11.23
2018-05-03T00:24:11.279Z,11.29
2018-05-03T00:25:11.251Z,11.19
2018-05-03T00:27:04.466Z,11.19
2018-05-03T00:28:04.359Z,11.18
2018-05-03T00:29:57.442Z,11.25
2018-05-03T00:30:57.428Z,11.26
2018-05-03T00:32:50.646Z,11.40
2018-05-03T00:33:50.564Z,11.33
2018-05-03T00:35:43.540Z,11.47
2018-05-03T00:36:43.483Z,11.41
2018-05-03T00:38:36.464Z,11.52
2018-05-03T00:39:36.424Z,11.54
2018-05-03T00:41:29.276Z,11.63
2018-05-03T00:42:29.217Z,11.65
2018-05-03T00:44:22.096Z,11.75
2018-05-03T00:45:22.000Z,11.66
2018-05-03T00:47:14.994Z,11.75
2018-05-03T00:48:14.958Z,11.83
2018-05-03T00:50:07.921Z,11.86
2018-05-03T00:51:07.881Z,11.83
2018-05-03T00:53:00.756Z,11.99
2018-05-03T00:54:00.672Z,12.03
2018-05-03T00:55:53.640Z,11.94
2018-05-03T00:56:53.619Z,12.00
2018-05-03T00:58:46.580Z,12.03
2018-05-03T00:59:46.529Z,12.06
2018-05-03T01:01:39.744Z,12.02
2018-05-03T01:02:39.640Z,11.97
2018-05-03T01:04:32.632Z,12.06
2018-05-03T01:05:32.569Z,12.00
2018-05-03T01:07:25.399Z,11.94
2018-05-03T01:08:25.429Z,12.00
2018-05-03T01:10:18.168Z,11.97
2018-05-03T01:11:18.126Z,11.97
2018-05-03T01:13:11.365Z,11.97
2018-05-03T01:14:11.296Z,11.94
2018-05-03T01:16:04.271Z,11.97
2018-05-03T01:17:04.246Z,11.95
2018-05-03T01:18:57.531Z,11.99
2018-05-03T01:19:57.443Z,11.99
2018-05-03T01:21:50.234Z,11.94
2018-05-03T01:22:50.199Z,11.97
2018-05-03T01:24:43.195Z,11.88
2018-05-03T01:25:43.200Z,11.88
2018-05-03T01:27:36.309Z,11.90
2018-05-03T01:28:36.271Z,11.88
2018-05-03T01:30:29.097Z,11.86
2018-05-03T01:31:29.040Z,11.87
2018-05-03T01:33:22.002Z,11.95
2018-05-03T01:34:22.065Z,11.91
2018-05-03T01:36:15.240Z,12.00
2018-05-03T01:37:15.119Z,12.10
2018-05-03T01:39:08.079Z,12.00
2018-05-03T01:40:08.027Z,12.04
2018-05-03T01:42:01.012Z,12.07
2018-05-03T01:43:00.967Z,12.03
2018-05-03T01:44:53.842Z,12.06
2018-05-03T01:45:53.792Z,12.02
2018-05-03T01:47:46.771Z,11.99
2018-05-03T01:48:46.730Z,12.06
2018-05-03T01:50:39.741Z,12.18
2018-05-03T01:51:39.698Z,12.03
2018-05-03T01:53:32.910Z,12.12
2018-05-03T01:54:32.834Z,12.12
2018-05-03T01:56:25.810Z,12.13
2018-05-03T01:57:25.762Z,12.10
2018-05-03T01:59:18.748Z,12.07
2018-05-03T02:00:18.697Z,12.12
2018-05-03T02:02:11.841Z,12.04
2018-05-03T02:03:11.758Z,12.09
2018-05-03T02:05:04.650Z,12.10
2018-05-03T02:06:04.522Z,12.09
2018-05-03T02:07:57.563Z,12.12
2018-05-03T02:08:57.513Z,12.18
2018-05-03T02:10:50.531Z,11.99
2018-05-03T02:11:50.406Z,12.09
2018-05-03T02:13:43.365Z,12.02
2018-05-03T02:14:43.330Z,12.06
2018-05-03T02:16:36.297Z,12.00
2018-05-03T02:17:36.266Z,12.03
2018-05-03T02:19:29.538Z,12.06
2018-05-03T02:20:29.412Z,12.13
2018-05-03T02:22:22.381Z,12.09
2018-05-03T02:23:22.332Z,12.18
2018-05-03T02:25:15.315Z,12.27
2018-05-03T02:26:15.277Z,12.29
2018-05-03T02:28:08.226Z,12.28
2018-05-03T02:29:08.128Z,12.31
2018-05-03T02:31:01.094Z,12.35
2018-05-03T02:32:01.068Z,12.22
2018-05-03T02:33:54.056Z,12.22
2018-05-03T02:34:54.027Z,12.22
2018-05-03T02:36:47.267Z,12.22
2018-05-03T02:37:47.143Z,12.29
2018-05-03T02:39:40.149Z,12.27
2018-05-03T02:40:40.105Z,12.31
2018-05-03T02:42:33.119Z,12.29
2018-05-03T02:43:33.072Z,12.29
2018-05-03T02:45:26.137Z,12.35
2018-05-03T02:46:26.098Z,12.28
2018-05-03T02:48:19.088Z,12.25
2018-05-03T02:49:19.154Z,12.29
2018-05-03T02:51:12.259Z,12.39
2018-05-03T02:52:12.150Z,12.37
2018-05-03T02:54:05.120Z,12.29
2018-05-03T02:55:05.082Z,12.28
2018-05-03T02:56:57.998Z,12.35
2018-05-03T02:57:58.014Z,12.37
2018-05-03T02:59:50.769Z,12.39
2018-05-03T03:00:50.729Z,12.39
2018-05-03T03:02:43.587Z,12.27
2018-05-03T03:03:43.556Z,12.36
2018-05-03T03:05:36.377Z,12.50
2018-05-03T03:06:36.321Z,12.49
2018-05-03T03:08:29.477Z,12.45
2018-05-03T03:09:29.532Z,12.45
2018-05-03T03:11:22.654Z,12.64
2018-05-03T03:12:22.570Z,12.55
2018-05-03T03:14:15.559Z,12.50
2018-05-03T03:15:15.497Z,12.53
2018-05-03T03:17:08.460Z,12.53
2018-05-03T03:18:08.435Z,12.50
2018-05-03T03:20:01.266Z,12.45
2018-05-03T03:21:01.207Z,12.50
2018-05-03T03:22:54.182Z,12.40
2018-05-03T03:23:54.151Z,12.43
2018-05-03T03:25:47.125Z,12.31
2018-05-03T03:26:47.086Z,12.36
2018-05-03T03:28:40.383Z,12.24
2018-05-03T03:29:40.218Z,12.31
2018-05-03T03:31:33.258Z,12.27
2018-05-03T03:32:33.194Z,12.28
2018-05-03T03:34:26.172Z,12.35
2018-05-03T03:35:26.125Z,12.21
2018-05-03T03:37:19.020Z,12.31
2018-05-03T03:38:18.969Z,12.25
2018-05-03T03:40:11.964Z,12.28
2018-05-03T03:41:11.899Z,12.24
2018-05-03T03:43:04.904Z,12.25
2018-05-03T03:44:04.883Z,12.22
2018-05-03T03:45:58.037Z,12.27
2018-05-03T03:46:57.992Z,12.27
2018-05-03T03:48:50.945Z,12.31
2018-05-03T03:49:50.917Z,12.21
2018-05-03T03:51:43.937Z,12.22
2018-05-03T03:52:43.858Z,12.22
2018-05-03T03:54:36.654Z,12.22
2018-05-03T03:55:36.621Z,12.25
2018-05-03T03:57:29.662Z,12.12
2018-05-03T03:58:29.599Z,12.18
2018-05-03T04:00:22.401Z,12.03
2018-05-03T04:01:22.365Z,12.03
2018-05-03T04:03:15.372Z,12.02
2018-05-03T04:04:15.300Z,12.00
2018-05-03T04:06:08.129Z,12.03
2018-05-03T04:07:08.079Z,11.95
2018-05-03T04:09:01.061Z,11.94
2018-05-03T04:10:01.014Z,11.97
2018-05-03T04:11:54.030Z,11.99
2018-05-03T04:12:53.972Z,11.88
2018-05-03T04:14:46.770Z,12.02
2018-05-03T04:15:46.758Z,12.00
2018-05-03T04:17:39.736Z,11.97
2018-05-03T04:18:39.644Z,11.94
2018-05-03T04:20:32.519Z,11.94
2018-05-03T04:21:32.426Z,11.88
2018-05-03T04:23:25.416Z,11.90
2018-05-03T04:24:25.363Z,11.87
2018-05-03T04:26:18.341Z,11.83
2018-05-03T04:27:18.311Z,11.88
2018-05-03T04:29:11.236Z,11.83
2018-05-03T04:30:11.121Z,11.72
2018-05-03T04:32:04.101Z,11.77
2018-05-03T04:33:04.066Z,11.69
2018-05-03T04:34:56.886Z,11.66
2018-05-03T04:35:56.840Z,11.77
2018-05-03T04:37:49.830Z,11.77
2018-05-03T04:38:49.785Z,11.69
2018-05-03T04:40:42.656Z,11.65
2018-05-03T04:41:42.595Z,11.66
2018-05-03T04:43:35.569Z,11.50
2018-05-03T04:44:35.528Z,11.48
2018-05-03T04:46:28.516Z,11.48
2018-05-03T04:47:28.549Z,11.37
2018-05-03T04:49:21.728Z,11.47
2018-05-03T04:50:21.590Z,11.45
2018-05-03T04:52:14.400Z,11.50
2018-05-03T04:53:14.376Z,11.43
2018-05-03T04:55:07.404Z,11.43
2018-05-03T04:56:07.330Z,11.26
2018-05-03T04:58:00.625Z,11.35
2018-05-03T04:59:00.473Z,11.23
2018-05-03T05:00:53.521Z,11.25
2018-05-03T05:01:53.482Z,11.37
2018-05-03T05:03:46.906Z,11.33
2018-05-03T05:04:46.692Z,11.30
2018-05-03T05:06:39.621Z,11.44
2018-05-03T05:07:39.561Z,11.50
2018-05-03T05:09:32.559Z,11.51
2018-05-03T05:10:32.593Z,11.47
2018-05-03T05:12:25.346Z,11.45
2018-05-03T05:13:25.280Z,11.43
2018-05-03T05:15:18.210Z,11.41
2018-05-03T05:16:18.052Z,11.47
2018-05-03T05:18:11.068Z,11.54
2018-05-03T05:19:11.002Z,11.40
2018-05-03T05:21:03.979Z,11.44
2018-05-03T05:22:03.969Z,11.44
2018-05-03T05:23:57.175Z,11.50
2018-05-03T05:24:57.066Z,11.47
2018-05-03T05:26:50.035Z,11.47
2018-05-03T05:27:49.982Z,11.44
2018-05-03T05:29:42.787Z,11.48
2018-05-03T05:30:42.783Z,11.52
2018-05-03T05:32:35.991Z,11.55
2018-05-03T05:33:35.872Z,11.47
2018-05-03T05:35:28.840Z,11.43
2018-05-03T05:36:28.824Z,11.45
2018-05-03T05:38:21.795Z,11.44
2018-05-03T05:39:21.747Z,11.41
2018-05-03T05:41:14.780Z,11.54
2018-05-03T05:42:14.633Z,11.59
2018-05-03T05:44:07.637Z,11.45
2018-05-03T05:45:07.567Z,11.41
2018-05-03T05:47:00.571Z,11.55
2018-05-03T05:48:00.560Z,11.66
2018-05-03T05:49:53.327Z,11.47
2018-05-03T05:50:53.445Z,11.44
2018-05-03T05:52:46.366Z,11.37
2018-05-03T05:53:46.286Z,11.47
2018-05-03T05:55:39.103Z,11.32
2018-05-03T05:56:39.159Z,11.55
2018-05-03T05:58:32.356Z,11.54
2018-05-03T05:59:32.288Z,11.68
2018-05-03T06:01:25.283Z,11.68
2018-05-03T06:02:25.244Z,11.65
2018-05-03T06:04:18.303Z,11.69
2018-05-03T06:05:18.196Z,11.80
2018-05-03T06:07:10.988Z,11.66
2018-05-03T06:08:10.955Z,11.73
2018-05-03T06:10:03.818Z,11.78
2018-05-03T06:11:03.752Z,11.66
2018-05-03T06:12:56.765Z,11.86
2018-05-03T06:13:56.683Z,11.91
2018-05-03T06:15:49.659Z,11.83
2018-05-03T06:16:49.857Z,12.00
2018-05-03T06:18:42.923Z,11.86
2018-05-03T06:19:42.688Z,11.87
2018-05-03T06:21:35.655Z,11.87
2018-05-03T06:22:35.614Z,12.06
2018-05-03T06:24:28.594Z,12.07
2018-05-03T06:25:28.613Z,12.02
2018-05-03T06:27:21.374Z,12.04
2018-05-03T06:28:21.339Z,12.06
2018-05-03T06:30:14.196Z,12.04
2018-05-03T06:31:14.130Z,12.13
2018-05-03T06:33:07.108Z,12.21
2018-05-03T06:34:07.082Z,12.20
2018-05-03T06:36:00.068Z,12.17
2018-05-03T06:37:00.014Z,11.99
2018-05-03T06:38:52.827Z,12.04
2018-05-03T06:39:52.801Z,12.07
2018-05-03T06:41:45.918Z,12.28
2018-05-03T06:42:45.618Z,12.24
2018-05-03T06:44:38.667Z,12.29
2018-05-03T06:45:38.606Z,12.31
2018-05-03T06:47:31.590Z,12.17
2018-05-03T06:48:31.557Z,12.21
2018-05-03T06:50:24.748Z,12.18
2018-05-03T06:51:24.755Z,12.25
2018-05-03T06:53:17.768Z,12.36
2018-05-03T06:54:17.793Z,12.42
2018-05-03T06:56:10.968Z,12.40
2018-05-03T06:57:10.932Z,12.53
2018-05-03T06:59:03.988Z,12.39
2018-05-03T07:00:04.032Z,12.53
2018-05-03T07:01:57.202Z,12.42
2018-05-03T07:02:57.136Z,12.39
2018-05-03T07:04:50.143Z,12.37
2018-05-03T07:05:50.089Z,12.31
2018-05-03T07:07:43.439Z,12.42
2018-05-03T07:08:43.324Z,12.31
2018-05-03T07:10:36.237Z,12.42
2018-05-03T07:11:36.140Z,12.39
2018-05-03T07:13:29.163Z,12.57
2018-05-03T07:14:29.106Z,12.39
2018-05-03T07:16:22.180Z,12.53
2018-05-03T07:17:22.009Z,12.57
2018-05-03T07:19:15.119Z,12.37
2018-05-03T07:20:15.076Z,12.37
2018-05-03T07:22:08.121Z,12.39
2018-05-03T07:23:08.046Z,12.43
2018-05-03T07:25:01.172Z,12.46
2018-05-03T07:26:01.124Z,12.64
2018-05-03T07:27:54.201Z,12.58
2018-05-03T07:28:54.119Z,12.67
2018-05-03T07:30:48.316Z,12.64
2018-05-03T07:31:48.135Z,12.61
2018-05-03T07:33:41.168Z,12.64
2018-05-03T07:34:41.164Z,12.61
2018-05-03T07:36:34.124Z,12.79
2018-05-03T07:37:34.090Z,12.80
2018-05-03T07:39:26.979Z,12.93
2018-05-03T07:40:26.920Z,12.94
2018-05-03T07:42:19.955Z,12.93
2018-05-03T07:43:19.914Z,12.97
2018-05-03T07:45:13.029Z,13.00
2018-05-03T07:46:13.099Z,13.00
2018-05-03T07:48:06.060Z,13.08
2018-05-03T07:49:05.874Z,13.08
2018-05-03T07:50:58.819Z,13.15
2018-05-03T07:51:58.779Z,13.05
2018-05-03T07:53:51.818Z,13.23
2018-05-03T07:54:51.744Z,13.20
2018-05-03T07:56:44.831Z,13.31
2018-05-03T07:57:44.658Z,13.46
2018-05-03T07:59:37.970Z,13.65
2018-05-03T08:00:37.582Z,13.56
2018-05-03T08:02:30.654Z,13.71
2018-05-03T08:03:30.614Z,13.60
2018-05-03T08:05:23.464Z,13.67
2018-05-03T08:06:23.412Z,13.68
2018-05-03T08:08:16.458Z,13.65
2018-05-03T08:09:16.400Z,13.65
2018-05-03T08:11:09.436Z,13.50
2018-05-03T08:12:09.401Z,13.50
2018-05-03T08:14:02.583Z,13.57
2018-05-03T08:15:02.535Z,13.65
2018-05-03T08:16:55.576Z,13.63
2018-05-03T08:17:55.527Z,13.65
2018-05-03T08:19:48.355Z,13.54
2018-05-03T08:20:48.315Z,13.57
2018-05-03T08:22:41.530Z,13.75
2018-05-03T08:23:41.497Z,13.79
2018-05-03T08:25:34.496Z,13.75
2018-05-03T08:26:34.435Z,13.92
2018-05-03T08:28:27.767Z,13.92
2018-05-03T08:29:27.582Z,13.90
2018-05-03T08:31:20.573Z,14.07
2018-05-03T08:32:20.535Z,14.26
2018-05-03T08:34:13.523Z,14.33
2018-05-03T08:35:13.462Z,14.44
2018-05-03T08:37:06.296Z,14.43
2018-05-03T08:38:06.248Z,14.35
2018-05-03T08:39:59.199Z,14.29
2018-05-03T08:40:59.041Z,14.20
2018-05-03T08:42:52.021Z,14.43
2018-05-03T08:43:52.001Z,14.32
2018-05-03T08:45:44.967Z,14.26
2018-05-03T08:46:44.919Z,14.29
2018-05-03T08:48:37.956Z,14.40
2018-05-03T08:49:37.857Z,14.37
2018-05-03T08:51:30.887Z,14.25
2018-05-03T08:52:30.839Z,14.33
2018-05-03T08:54:23.821Z,14.53
2018-05-03T08:55:23.870Z,14.54
2018-05-03T08:57:16.695Z,14.54
2018-05-03T08:58:16.630Z,14.73
2018-05-03T09:00:09.504Z,14.62
2018-05-03T09:01:09.406Z,14.45
2018-05-03T09:03:02.419Z,14.33
2018-05-03T09:04:02.362Z,14.43
2018-05-03T09:05:55.382Z,14.30
2018-05-03T09:06:55.318Z,14.41
2018-05-03T09:08:48.342Z,14.28
2018-05-03T09:09:48.162Z,14.40
2018-05-03T09:11:41.200Z,14.47
2018-05-03T09:12:41.127Z,14.58
2018-05-03T09:14:34.118Z,14.66
2018-05-03T09:15:34.088Z,14.55
2018-05-03T09:17:27.027Z,14.62
2018-05-03T09:18:26.976Z,14.77
2018-05-03T09:20:19.851Z,14.88
2018-05-03T09:21:19.751Z,14.99
2018-05-03T09:23:12.745Z,14.84
2018-05-03T09:24:12.724Z,14.79
2018-05-03T09:26:05.712Z,14.86
2018-05-03T09:27:05.654Z,14.73
2018-05-03T09:28:58.693Z,15.07
2018-05-03T09:29:58.658Z,14.99
2018-05-03T09:31:51.700Z,14.81
2018-05-03T09:32:51.637Z,14.85
2018-05-03T09:34:44.431Z,15.00
2018-05-03T09:35:44.393Z,15.03
2018-05-03T09:37:37.466Z,15.22
2018-05-03T09:38:37.185Z,15.35
2018-05-03T09:40:30.142Z,15.19
2018-05-03T09:41:29.973Z,15.19
2018-05-03T09:43:23.010Z,15.25
2018-05-03T09:44:22.938Z,15.14
2018-05-03T09:46:15.950Z,15.29
2018-05-03T09:47:15.885Z,15.52
2018-05-03T09:49:08.688Z,15.75
2018-05-03T09:50:08.656Z,15.62
2018-05-03T09:52:01.727Z,15.62
2018-05-03T09:53:01.637Z,15.73
2018-05-03T09:54:54.622Z,16.08
2018-05-03T09:55:54.635Z,16.16
2018-05-03T09:57:47.927Z,16.78
2018-05-03T09:58:47.757Z,17.27
2018-05-03T10:00:40.748Z,17.94
2018-05-03T10:01:40.724Z,18.25
2018-05-03T10:03:34.080Z,18.01
2018-05-03T10:04:33.981Z,18.29
2018-05-03T10:06:26.988Z,18.81
2018-05-03T10:07:26.944Z,19.27
2018-05-03T10:09:19.919Z,20.21
2018-05-03T10:10:19.913Z,20.41
2018-05-03T10:12:12.846Z,20.70
2018-05-03T10:13:12.759Z,21.02
2018-05-03T10:15:05.792Z,21.36
2018-05-03T10:16:05.770Z,21.46
2018-05-03T10:17:58.774Z,21.15
2018-05-03T10:18:58.750Z,20.81
2018-05-03T10:20:51.753Z,20.90
2018-05-03T10:21:51.991Z,21.39
2018-05-03T10:23:44.650Z,21.05
2018-05-03T10:24:44.610Z,20.66
2018-05-03T10:26:37.602Z,20.07
2018-05-03T10:27:37.579Z,20.48
2018-05-03T10:29:30.419Z,20.51
2018-05-03T10:30:30.381Z,19.41
2018-05-03T10:32:23.384Z,18.93
2018-05-03T10:33:23.364Z,18.93
2018-05-03T10:35:16.428Z,19.21
2018-05-03T10:36:16.443Z,19.58
2018-05-03T10:38:09.582Z,19.74
2018-05-03T10:39:09.540Z,19.39
2018-05-03T10:41:02.610Z,19.71
2018-05-03T10:42:02.656Z,19.92
2018-05-03T10:43:55.828Z,19.69
2018-05-03T10:44:55.748Z,20.10
2018-05-03T10:46:48.837Z,19.73
2018-05-03T10:47:48.810Z,19.67
2018-05-03T10:49:42.073Z,20.78
2018-05-03T10:50:42.033Z,20.80
2018-05-03T10:52:35.045Z,20.88
2018-05-03T10:53:35.034Z,20.62
2018-05-03T10:55:28.257Z,20.11
2018-05-03T10:56:28.189Z,20.06
2018-05-03T10:58:21.237Z,20.47
2018-05-03T10:59:21.197Z,20.14
2018-05-03T11:01:14.472Z,20.04
2018-05-03T11:02:14.341Z,20.62
2018-05-03T11:04:07.391Z,21.25
2018-05-03T11:05:07.332Z,21.02
2018-05-03T11:07:00.664Z,21.37
2018-05-03T11:08:00.497Z,21.21
2018-05-03T11:09:53.323Z,21.83
2018-05-03T11:10:53.308Z,21.70
2018-05-03T11:12:46.319Z,21.61
2018-05-03T11:13:46.388Z,21.88
2018-05-03T11:15:39.557Z,21.30
2018-05-03T11:16:39.525Z,21.20
2018-05-03T11:18:32.450Z,21.93
2018-05-03T11:19:32.433Z,21.95
2018-05-03T11:21:25.275Z,21.93
2018-05-03T11:22:25.228Z,21.07
2018-05-03T11:24:18.063Z,21.99
2018-05-03T11:25:18.043Z,21.70
2018-05-03T11:27:11.066Z,21.69
2018-05-03T11:28:11.037Z,21.96
2018-05-03T11:30:03.862Z,21.95
2018-05-03T11:31:03.839Z,21.75
2018-05-03T11:32:56.896Z,21.11
2018-05-03T11:33:56.844Z,21.57
2018-05-03T11:35:49.899Z,22.99
2018-05-03T11:36:49.867Z,22.53
2018-05-03T11:38:42.693Z,23.00
2018-05-03T11:39:42.682Z,22.98
2018-05-03T11:41:35.703Z,22.75
2018-05-03T11:42:35.679Z,22.78
2018-05-03T11:44:28.566Z,22.35
2018-05-03T11:45:28.519Z,22.44
2018-05-03T11:47:21.599Z,22.07
2018-05-03T11:48:21.548Z,22.80
2018-05-03T11:50:14.400Z,21.83
2018-05-03T11:51:14.355Z,22.07
2018-05-03T11:53:07.614Z,22.22
2018-05-03T11:54:07.559Z,21.83
2018-05-03T11:56:00.593Z,22.73
2018-05-03T11:57:00.530Z,22.87
2018-05-03T11:58:53.358Z,22.44
2018-05-03T11:59:53.342Z,21.83
2018-05-03T12:01:46.393Z,22.00
2018-05-03T12:02:46.209Z,22.54
2018-05-03T12:04:39.201Z,22.87
2018-05-03T12:05:39.190Z,22.32
2018-05-03T12:07:32.259Z,22.08
2018-05-03T12:08:32.169Z,22.32
2018-05-03T12:10:25.005Z,23.05
2018-05-03T12:11:24.984Z,23.23
2018-05-03T12:13:18.010Z,23.08
2018-05-03T12:14:17.972Z,22.75
2018-05-03T12:16:10.973Z,22.11
2018-05-03T12:17:10.992Z,22.72
2018-05-03T12:19:04.192Z,23.05
2018-05-03T12:20:04.138Z,22.75
2018-05-03T12:21:57.164Z,22.48
2018-05-03T12:22:57.125Z,22.53
2018-05-03T12:24:50.386Z,21.75
2018-05-03T12:25:50.308Z,22.14
2018-05-03T12:27:43.369Z,22.72
2018-05-03T12:28:43.336Z,22.85
2018-05-03T12:30:36.183Z,22.17
2018-05-03T12:31:36.149Z,21.85
2018-05-03T12:33:29.198Z,21.95
2018-05-03T12:34:29.032Z,22.47
2018-05-03T12:36:21.901Z,22.13
2018-05-03T12:37:21.857Z,22.25
2018-05-03T12:39:14.845Z,21.82
2018-05-03T12:40:14.918Z,21.83
2018-05-03T12:42:08.095Z,21.82
2018-05-03T12:43:07.985Z,22.04
2018-05-03T12:45:00.999Z,21.33
2018-05-03T12:46:01.015Z,21.40
2018-05-03T12:47:54.309Z,21.12
2018-05-03T12:48:54.108Z,20.95
2018-05-03T12:50:46.988Z,21.20
2018-05-03T12:51:46.923Z,21.03
2018-05-03T12:53:40.125Z,20.88
2018-05-03T12:54:40.100Z,21.00
2018-05-03T12:56:32.980Z,21.24
2018-05-03T12:57:32.919Z,21.73
2018-05-03T12:59:25.953Z,21.43
2018-05-03T13:00:25.898Z,21.98
2018-05-03T13:02:18.877Z,21.70
2018-05-03T13:03:18.900Z,21.58
2018-05-03T13:05:11.731Z,22.06
2018-05-03T13:06:11.704Z,22.23
2018-05-03T13:08:04.670Z,22.18
2018-05-03T13:09:04.509Z,22.17
2018-05-03T13:10:57.536Z,22.60
2018-05-03T13:11:57.466Z,22.54
2018-05-03T13:13:50.486Z,23.15
2018-05-03T13:14:50.456Z,23.23
2018-05-03T13:16:43.355Z,22.88
2018-05-03T13:17:43.295Z,22.91
2018-05-03T13:19:36.312Z,23.25
2018-05-03T13:20:36.266Z,22.60
2018-05-03T13:22:29.260Z,21.55
2018-05-03T13:23:29.235Z,21.20
2018-05-03T13:25:22.354Z,20.87
2018-05-03T13:26:22.156Z,21.05
2018-05-03T13:28:15.173Z,20.95
2018-05-03T13:29:15.140Z,21.05
2018-05-03T13:31:08.163Z,21.40
2018-05-03T13:32:08.110Z,21.37
2018-05-03T13:34:00.951Z,21.40
2018-05-03T13:35:00.971Z,21.00
2018-05-03T13:36:53.960Z,20.69
2018-05-03T13:37:53.913Z,20.70
2018-05-03T13:39:46.931Z,21.25
2018-05-03T13:40:46.909Z,21.51
2018-05-03T13:42:40.080Z,21.55
2018-05-03T13:43:40.024Z,21.43
2018-05-03T13:45:33.053Z,21.33
2018-05-03T13:46:33.071Z,20.88
2018-05-03T13:48:26.266Z,20.65
2018-05-03T13:49:26.203Z,20.60
2018-05-03T13:51:19.265Z,20.77
2018-05-03T13:52:19.370Z,20.90
2018-05-03T13:54:12.478Z,20.69
2018-05-03T13:55:12.307Z,20.44
2018-05-03T13:57:05.369Z,20.70
2018-05-03T13:58:05.291Z,21.02
2018-05-03T13:59:58.295Z,21.02
2018-05-03T14:00:58.280Z,21.39
2018-05-03T14:02:51.129Z,21.72
2018-05-03T14:03:51.095Z,21.73
2018-05-03T14:05:44.135Z,21.02
2018-05-03T14:06:44.073Z,20.31
2018-05-03T14:08:37.262Z,20.37
2018-05-03T14:09:37.213Z,20.60
2018-05-03T14:11:30.314Z,20.29
2018-05-03T14:12:30.292Z,20.31
2018-05-03T14:14:23.306Z,21.14
2018-05-03T14:15:23.287Z,21.64
2018-05-03T14:17:16.546Z,21.18
2018-05-03T14:18:16.428Z,20.80
2018-05-03T14:20:09.399Z,20.84
2018-05-03T14:21:09.412Z,21.37
2018-05-03T14:23:02.708Z,22.08
2018-05-03T14:24:02.544Z,22.33
2018-05-03T14:25:55.587Z,22.39
2018-05-03T14:26:55.565Z,22.08
2018-05-03T14:28:48.608Z,22.14
2018-05-03T14:29:48.540Z,22.32
2018-05-03T14:31:41.371Z,21.73
2018-05-03T14:32:41.342Z,21.60
2018-05-03T14:34:34.368Z,22.20
2018-05-03T14:35:34.313Z,21.95
2018-05-03T14:37:27.337Z,21.00
2018-05-03T14:38:27.300Z,20.41
2018-05-03T14:40:20.221Z,20.52
2018-05-03T14:41:20.172Z,20.77
2018-05-03T14:43:13.173Z,21.12
2018-05-03T14:44:13.140Z,20.92
2018-05-03T14:46:06.158Z,20.99
2018-05-03T14:47:06.173Z,20.72
2018-05-03T14:48:58.977Z,20.88
2018-05-03T14:49:58.934Z,20.95
2018-05-03T14:51:51.933Z,21.20
2018-05-03T14:52:51.886Z,21.06
2018-05-03T14:54:44.889Z,21.27
2018-05-03T14:55:44.856Z,20.97
2018-05-03T14:57:38.151Z,20.00
2018-05-03T14:58:38.017Z,20.31
2018-05-03T15:00:30.970Z,20.77
2018-05-03T15:01:30.806Z,20.84
2018-05-03T15:03:23.834Z,21.25
2018-05-03T15:04:23.805Z,21.35
2018-05-03T15:06:17.007Z,21.02
2018-05-03T15:07:16.948Z,21.05
2018-05-03T15:09:09.783Z,21.32
2018-05-03T15:10:09.753Z,21.43
2018-05-03T15:12:02.607Z,21.18
2018-05-03T15:13:02.693Z,21.42
2018-05-03T15:14:55.709Z,21.62
2018-05-03T15:15:55.657Z,21.73
2018-05-03T15:17:48.686Z,21.33
2018-05-03T15:18:48.649Z,20.67
2018-05-03T15:20:41.594Z,20.48
2018-05-03T15:21:41.443Z,20.29
2018-05-03T15:23:34.771Z,20.03
2018-05-03T15:24:34.603Z,20.18
2018-05-03T15:26:27.664Z,20.43
2018-05-03T15:27:27.597Z,20.25
2018-05-03T15:29:20.808Z,20.59
2018-05-03T15:30:20.709Z,20.69
2018-05-03T15:32:13.743Z,21.12
2018-05-03T15:33:13.664Z,21.25
2018-05-03T15:35:06.501Z,21.76
2018-05-03T15:36:06.614Z,21.52
2018-05-03T15:37:59.766Z,21.11
2018-05-03T15:38:59.614Z,20.60
2018-05-03T15:40:52.454Z,20.92
2018-05-03T15:41:52.422Z,20.99
2018-05-03T15:43:45.425Z,21.06
2018-05-03T15:44:45.378Z,21.20
2018-05-03T15:46:38.698Z,21.51
2018-05-03T15:47:38.679Z,21.64
2018-05-03T15:49:31.674Z,21.95
2018-05-03T15:50:31.685Z,21.79
2018-05-03T15:52:24.887Z,21.72
2018-05-03T15:53:24.769Z,21.18
2018-05-03T15:55:17.762Z,21.02
2018-05-03T15:56:17.729Z,21.20
2018-05-03T15:58:10.738Z,20.78
2018-05-03T15:59:10.689Z,21.00
2018-05-03T16:01:03.703Z,20.80
2018-05-03T16:02:03.501Z,20.92
2018-05-03T16:03:56.387Z,21.20
2018-05-03T16:04:56.350Z,21.29
2018-05-03T16:06:49.296Z,20.59
2018-05-03T16:07:49.376Z,20.85
2018-05-03T16:09:42.569Z,21.11
2018-05-03T16:10:42.440Z,20.90
2018-05-03T16:12:35.417Z,20.09
2018-05-03T16:13:35.376Z,20.34
2018-05-03T16:15:28.860Z,20.16
2018-05-03T16:16:28.324Z,20.58
2018-05-03T16:18:21.229Z,21.07
2018-05-03T16:19:21.168Z,21.17
2018-05-03T16:21:14.155Z,21.02
2018-05-03T16:22:14.159Z,20.81
2018-05-03T16:24:06.974Z,20.41
2018-05-03T16:25:07.009Z,19.95
2018-05-03T16:26:59.916Z,19.99
2018-05-03T16:27:59.888Z,19.62
2018-05-03T16:29:52.925Z,19.99
2018-05-03T16:30:52.745Z,20.16
2018-05-03T16:32:45.719Z,19.55
2018-05-03T16:33:45.700Z,19.27
2018-05-03T16:35:38.718Z,19.02
2018-05-03T16:36:38.673Z,19.26
2018-05-03T16:38:31.697Z,19.15
2018-05-03T16:39:31.522Z,19.09
2018-05-03T16:41:24.501Z,18.47
2018-05-03T16:42:24.462Z,18.26
2018-05-03T16:44:17.471Z,18.55
2018-05-03T16:45:17.450Z,18.74
2018-05-03T16:47:10.596Z,18.58
2018-05-03T16:48:10.584Z,18.75
2018-05-03T16:50:03.616Z,18.59
2018-05-03T16:51:03.556Z,18.33
2018-05-03T16:52:56.766Z,18.55
2018-05-03T16:53:56.678Z,18.38
2018-05-03T16:55:49.714Z,18.23
2018-05-03T16:56:49.635Z,18.31
2018-05-03T16:58:42.600Z,18.38
2018-05-03T16:59:42.574Z,18.52
2018-05-03T17:01:35.527Z,18.50
2018-05-03T17:02:35.464Z,18.71
2018-05-03T17:04:28.468Z,18.80
2018-05-03T17:05:28.451Z,18.63
2018-05-03T17:07:21.452Z,18.60
2018-05-03T17:08:21.405Z,18.47
2018-05-03T17:10:14.275Z,18.44
2018-05-03T17:11:14.227Z,18.59
2018-05-03T17:13:07.224Z,18.53
2018-05-03T17:14:07.045Z,18.56
2018-05-03T17:16:00.025Z,18.37
2018-05-03T17:16:59.978Z,18.37
2018-05-03T17:18:52.980Z,17.98
2018-05-03T17:19:52.933Z,18.16
2018-05-03T17:21:45.838Z,18.13
2018-05-03T17:22:45.782Z,18.08
2018-05-03T17:24:38.757Z,17.86
2018-05-03T17:25:38.735Z,18.00
2018-05-03T17:27:31.742Z,18.10
2018-05-03T17:28:31.689Z,18.04
2018-05-03T17:30:24.879Z,18.29
2018-05-03T17:31:24.816Z,18.26
2018-05-03T17:33:17.838Z,18.28
2018-05-03T17:34:17.789Z,18.33
2018-05-03T17:36:10.781Z,17.95
2018-05-03T17:37:10.791Z,18.00
2018-05-03T17:39:03.677Z,17.79
2018-05-03T17:40:03.548Z,17.82
2018-05-03T17:41:56.410Z,17.71
2018-05-03T17:42:56.313Z,17.48
2018-05-03T17:44:49.320Z,17.29
2018-05-03T17:45:49.255Z,17.39
2018-05-03T17:47:42.232Z,17.27
2018-05-03T17:48:42.199Z,17.08
2018-05-03T17:50:35.026Z,17.06
2018-05-03T17:51:35.000Z,17.14
2018-05-03T17:53:28.055Z,17.05
2018-05-03T17:54:27.944Z,17.02
2018-05-03T17:56:20.913Z,17.04
2018-05-03T17:57:20.883Z,17.14
2018-05-03T17:59:14.137Z,17.09
2018-05-03T18:00:14.030Z,16.96
2018-05-03T18:02:07.006Z,16.93
2018-05-03T18:03:06.978Z,16.91
2018-05-03T18:04:59.974Z,16.89
2018-05-03T18:05:59.914Z,16.90
2018-05-03T18:07:52.857Z,16.66
2018-05-03T18:08:52.766Z,16.74
2018-05-03T18:10:45.667Z,16.75
2018-05-03T18:11:45.546Z,16.76
2018-05-03T18:13:38.552Z,16.72
2018-05-03T18:14:38.639Z,16.56
2018-05-03T18:16:31.815Z,16.56
2018-05-03T18:17:31.668Z,16.49
2018-05-03T18:19:24.831Z,16.42
2018-05-03T18:20:24.893Z,16.38
2018-05-03T18:22:17.886Z,16.26
2018-05-03T18:23:17.764Z,16.31
2018-05-03T18:25:10.789Z,16.26
2018-05-03T18:26:10.741Z,16.33
2018-05-03T18:28:03.711Z,16.23
2018-05-03T18:29:03.773Z,16.29
2018-05-03T18:30:57.072Z,16.21
2018-05-03T18:31:56.965Z,16.16
2018-05-03T18:33:49.786Z,16.12